sensor_id;sensor_type;location;lat;lon;timestamp;pressure;altitude;pressure_sealevel;temperature;humidity
4586;BME280;2305;50.118;8.952;2023-05-03T00:00:19;101641.03;;;9.27;100.00
4586;BME280;2305;50.118;8.952;2023-05-03T00:02:52;101630.53;;;9.27;100.00
4586;BME280;2305;50.118;8.952;2023-05-03T00:05:24;101627.97;;;9.26;100.00
4586;BME280;2305;50.118;8.952;2023-05-03T00:07:53;101627.22;;;9.24;100.00
4586;BME280;2305;50.118;8.952;2023-05-03T00:10:22;101623.91;;;9.20;100.00
4586;BME280;2305;50.118;8.952;2023-05-03T00:12:50;101631.09;;;9.17;100.00
4586;BME280;2305;50.118;8.952;2023-05-03T00:15:20;101630.31;;;9.15;100.00
4586;BME280;2305;50.118;8.952;2023-05-03T00:17:49;101626.88;;;9.14;100.00
4586;BME280;2305;50.118;8.952;2023-05-03T00:20:18;101626.00;;;9.14;100.00
4586;BME280;2305;50.118;8.952;2023-05-03T00:22:47;101631.44;;;9.11;100.00
4586;BME280;2305;50.118;8.952;2023-05-03T00:25:14;101626.06;;;9.12;100.00
4586;BME280;2305;50.118;8.952;2023-05-03T00:27:42;101626.69;;;9.17;100.00
4586;BME280;2305;50.118;8.952;2023-05-03T00:30:11;101622.44;;;9.15;100.00
4586;BME280;2305;50.118;8.952;2023-05-03T00:32:42;101620.81;;;9.12;100.00
4586;BME280;2305;50.118;8.952;2023-05-03T00:35:10;101624.56;;;9.08;100.00
4586;BME280;2305;50.118;8.952;2023-05-03T00:37:39;101620.38;;;9.04;100.00
4586;BME280;2305;50.118;8.952;2023-05-03T00:40:08;101609.13;;;9.02;100.00
4586;BME280;2305;50.118;8.952;2023-05-03T00:42:36;101613.44;;;9.03;100.00
4586;BME280;2305;50.118;8.952;2023-05-03T00:45:07;101606.66;;;8.99;100.00
4586;BME280;2305;50.118;8.952;2023-05-03T00:47:35;101610.19;;;8.98;100.00
4586;BME280;2305;50.118;8.952;2023-05-03T00:50:07;101608.88;;;8.92;100.00
4586;BME280;2305;50.118;8.952;2023-05-03T00:52:37;101616.06;;;8.88;100.00
4586;BME280;2305;50.118;8.952;2023-05-03T00:55:08;101605.72;;;8.85;100.00
4586;BME280;2305;50.118;8.952;2023-05-03T00:57:43;101608.41;;;8.83;100.00
4586;BME280;2305;50.118;8.952;2023-05-03T01:00:18;101600.88;;;8.78;100.00
4586;BME280;2305;50.118;8.952;2023-05-03T01:02:58;101601.78;;;8.77;100.00
4586;BME280;2305;50.118;8.952;2023-05-03T01:05:49;101592.22;;;8.76;100.00
4586;BME280;2305;50.118;8.952;2023-05-03T01:08:30;101593.16;;;8.75;100.00
4586;BME280;2305;50.118;8.952;2023-05-03T01:11:06;101591.03;;;8.66;100.00
4586;BME280;2305;50.118;8.952;2023-05-03T01:13:42;101579.97;;;8.59;100.00
4586;BME280;2305;50.118;8.952;2023-05-03T01:16:17;101586.59;;;8.51;100.00
4586;BME280;2305;50.118;8.952;2023-05-03T01:18:59;101578.00;;;8.47;100.00
4586;BME280;2305;50.118;8.952;2023-05-03T01:21:56;101577.56;;;8.39;100.00
4586;BME280;2305;50.118;8.952;2023-05-03T01:24:38;101583.91;;;8.35;100.00
4586;BME280;2305;50.118;8.952;2023-05-03T01:27:12;101582.44;;;8.30;100.00
4586;BME280;2305;50.118;8.952;2023-05-03T01:29:47;101586.69;;;8.32;100.00
4586;BME280;2305;50.118;8.952;2023-05-03T01:32:39;101583.53;;;8.26;100.00
4586;BME280;2305;50.118;8.952;2023-05-03T01:35:19;101576.44;;;8.28;100.00
4586;BME280;2305;50.118;8.952;2023-05-03T01:37:54;101573.72;;;8.29;100.00
4586;BME280;2305;50.118;8.952;2023-05-03T01:40:31;101572.03;;;8.28;100.00
4586;BME280;2305;50.118;8.952;2023-05-03T01:43:12;101577.53;;;8.24;100.00
4586;BME280;2305;50.118;8.952;2023-05-03T01:45:59;101581.34;;;8.17;100.00
4586;BME280;2305;50.118;8.952;2023-05-03T01:48:35;101583.00;;;8.19;100.00
4586;BME280;2305;50.118;8.952;2023-05-03T01:51:06;101576.97;;;8.17;100.00
4586;BME280;2305;50.118;8.952;2023-05-03T01:53:35;101583.13;;;8.16;100.00
4586;BME280;2305;50.118;8.952;2023-05-03T01:56:04;101579.91;;;8.11;100.00
4586;BME280;2305;50.118;8.952;2023-05-03T02:01:34;101576.72;;;8.05;100.00
4586;BME280;2305;50.118;8.952;2023-05-03T02:04:10;101573.28;;;8.04;100.00
4586;BME280;2305;50.118;8.952;2023-05-03T02:06:42;101581.22;;;8.03;100.00
4586;BME280;2305;50.118;8.952;2023-05-03T02:09:11;101582.22;;;8.00;100.00
4586;BME280;2305;50.118;8.952;2023-05-03T02:11:43;101595.50;;;7.97;100.00
4586;BME280;2305;50.118;8.952;2023-05-03T02:14:18;101594.88;;;7.92;100.00
4586;BME280;2305;50.118;8.952;2023-05-03T02:16:49;101598.50;;;7.90;100.00
4586;BME280;2305;50.118;8.952;2023-05-03T02:19:33;101591.63;;;7.87;100.00
4586;BME280;2305;50.118;8.952;2023-05-03T02:22:01;101597.88;;;7.85;100.00
4586;BME280;2305;50.118;8.952;2023-05-03T02:24:46;101606.78;;;7.82;100.00
4586;BME280;2305;50.118;8.952;2023-05-03T02:27:17;101599.03;;;7.79;100.00
4586;BME280;2305;50.118;8.952;2023-05-03T02:29:55;101603.50;;;7.77;100.00
4586;BME280;2305;50.118;8.952;2023-05-03T02:32:30;101598.34;;;7.76;100.00
4586;BME280;2305;50.118;8.952;2023-05-03T02:35:05;101601.88;;;7.75;100.00
4586;BME280;2305;50.118;8.952;2023-05-03T02:37:44;101594.25;;;7.70;100.00
4586;BME280;2305;50.118;8.952;2023-05-03T02:40:12;101598.81;;;7.67;100.00
4586;BME280;2305;50.118;8.952;2023-05-03T02:42:43;101595.78;;;7.57;100.00
4586;BME280;2305;50.118;8.952;2023-05-03T02:45:15;101604.78;;;7.52;100.00
4586;BME280;2305;50.118;8.952;2023-05-03T02:47:44;101609.13;;;7.53;100.00
4586;BME280;2305;50.118;8.952;2023-05-03T02:50:13;101611.56;;;7.56;100.00
4586;BME280;2305;50.118;8.952;2023-05-03T02:52:42;101606.50;;;7.53;100.00
4586;BME280;2305;50.118;8.952;2023-05-03T02:55:10;101606.50;;;7.53;100.00
4586;BME280;2305;50.118;8.952;2023-05-03T02:57:40;101615.28;;;7.52;100.00
4586;BME280;2305;50.118;8.952;2023-05-03T03:00:15;101618.91;;;7.49;100.00
4586;BME280;2305;50.118;8.952;2023-05-03T03:02:43;101612.78;;;7.49;100.00
4586;BME280;2305;50.118;8.952;2023-05-03T03:05:12;101612.72;;;7.50;100.00
4586;BME280;2305;50.118;8.952;2023-05-03T03:07:47;101610.16;;;7.49;100.00
4586;BME280;2305;50.118;8.952;2023-05-03T03:10:16;101610.56;;;7.41;100.00
4586;BME280;2305;50.118;8.952;2023-05-03T03:12:44;101606.25;;;7.40;100.00
4586;BME280;2305;50.118;8.952;2023-05-03T03:15:23;101602.81;;;7.38;100.00
4586;BME280;2305;50.118;8.952;2023-05-03T03:17:51;101607.38;;;7.35;100.00
4586;BME280;2305;50.118;8.952;2023-05-03T03:20:24;101606.53;;;7.34;100.00
4586;BME280;2305;50.118;8.952;2023-05-03T03:22:54;101610.00;;;7.35;100.00
4586;BME280;2305;50.118;8.952;2023-05-03T03:25:23;101605.66;;;7.34;100.00
4586;BME280;2305;50.118;8.952;2023-05-03T03:27:54;101615.38;;;7.32;100.00
4586;BME280;2305;50.118;8.952;2023-05-03T03:30:27;101613.00;;;7.27;100.00
4586;BME280;2305;50.118;8.952;2023-05-03T03:33:05;101615.69;;;7.26;100.00
4586;BME280;2305;50.118;8.952;2023-05-03T03:35:38;101615.03;;;7.21;100.00
4586;BME280;2305;50.118;8.952;2023-05-03T03:38:07;101613.34;;;7.20;100.00
4586;BME280;2305;50.118;8.952;2023-05-03T03:40:41;101612.34;;;7.22;100.00
4586;BME280;2305;50.118;8.952;2023-05-03T03:43:10;101610.66;;;7.21;100.00
4586;BME280;2305;50.118;8.952;2023-05-03T03:45:40;101614.25;;;7.19;100.00
4586;BME280;2305;50.118;8.952;2023-05-03T03:48:11;101606.69;;;7.13;100.00
4586;BME280;2305;50.118;8.952;2023-05-03T03:50:42;101611.16;;;7.11;100.00
4586;BME280;2305;50.118;8.952;2023-05-03T03:53:12;101609.47;;;7.10;100.00
4586;BME280;2305;50.118;8.952;2023-05-03T03:55:40;101609.41;;;7.11;100.00
4586;BME280;2305;50.118;8.952;2023-05-03T03:58:08;101611.09;;;7.12;100.00
4586;BME280;2305;50.118;8.952;2023-05-03T04:00:37;101603.50;;;7.06;100.00
4586;BME280;2305;50.118;8.952;2023-05-03T04:03:14;101609.75;;;7.04;100.00
4586;BME280;2305;50.118;8.952;2023-05-03T04:05:43;101611.53;;;7.03;100.00
4586;BME280;2305;50.118;8.952;2023-05-03T04:08:11;101612.38;;;7.04;100.00
4586;BME280;2305;50.118;8.952;2023-05-03T04:10:40;101607.19;;;7.02;100.00
4586;BME280;2305;50.118;8.952;2023-05-03T04:13:08;101610.72;;;7.01;100.00
4586;BME280;2305;50.118;8.952;2023-05-03T04:15:39;101617.75;;;7.01;100.00
4586;BME280;2305;50.118;8.952;2023-05-03T04:18:09;101621.22;;;7.01;100.00
4586;BME280;2305;50.118;8.952;2023-05-03T04:20:42;101625.75;;;6.98;100.00
4586;BME280;2305;50.118;8.952;2023-05-03T04:23:14;101626.66;;;6.97;100.00
4586;BME280;2305;50.118;8.952;2023-05-03T04:25:42;101620.66;;;6.95;100.00
4586;BME280;2305;50.118;8.952;2023-05-03T04:28:15;101624.03;;;6.97;100.00
4586;BME280;2305;50.118;8.952;2023-05-03T04:30:46;101636.94;;;7.01;100.00
4586;BME280;2305;50.118;8.952;2023-05-03T04:33:20;101634.19;;;7.04;100.00
4586;BME280;2305;50.118;8.952;2023-05-03T04:35:53;101635.94;;;7.04;100.00
4586;BME280;2305;50.118;8.952;2023-05-03T04:38:23;101635.03;;;7.05;100.00
4586;BME280;2305;50.118;8.952;2023-05-03T04:40:52;101636.00;;;7.02;100.00
4586;BME280;2305;50.118;8.952;2023-05-03T04:43:22;101634.97;;;7.06;100.00
4586;BME280;2305;50.118;8.952;2023-05-03T04:45:51;101633.16;;;7.07;100.00
4586;BME280;2305;50.118;8.952;2023-05-03T04:48:22;101635.66;;;7.10;100.00
4586;BME280;2305;50.118;8.952;2023-05-03T04:50:50;101646.91;;;7.12;100.00
4586;BME280;2305;50.118;8.952;2023-05-03T04:53:22;101638.06;;;7.14;100.00
4586;BME280;2305;50.118;8.952;2023-05-03T04:56:08;101645.78;;;7.17;100.00
4586;BME280;2305;50.118;8.952;2023-05-03T04:58:39;101645.59;;;7.22;100.00
4586;BME280;2305;50.118;8.952;2023-05-03T05:01:08;101643.97;;;7.19;100.00
4586;BME280;2305;50.118;8.952;2023-05-03T05:03:36;101647.84;;;7.29;100.00
4586;BME280;2305;50.118;8.952;2023-05-03T05:06:10;101643.59;;;7.27;100.00
4586;BME280;2305;50.118;8.952;2023-05-03T05:08:42;101646.06;;;7.30;100.00
4586;BME280;2305;50.118;8.952;2023-05-03T05:11:13;101638.13;;;7.31;100.00
4586;BME280;2305;50.118;8.952;2023-05-03T05:13:41;101639.75;;;7.34;100.00
4586;BME280;2305;50.118;8.952;2023-05-03T05:16:10;101647.28;;;7.41;100.00
4586;BME280;2305;50.118;8.952;2023-05-03T05:18:41;101647.91;;;7.46;100.00
4586;BME280;2305;50.118;8.952;2023-05-03T05:21:10;101645.06;;;7.51;100.00
4586;BME280;2305;50.118;8.952;2023-05-03T05:23:42;101644.84;;;7.55;100.00
4586;BME280;2305;50.118;8.952;2023-05-03T05:26:11;101646.19;;;7.64;100.00
4586;BME280;2305;50.118;8.952;2023-05-03T05:28:41;101649.50;;;7.67;100.00
4586;BME280;2305;50.118;8.952;2023-05-03T05:31:10;101647.34;;;7.75;100.00
4586;BME280;2305;50.118;8.952;2023-05-03T05:33:42;101650.56;;;7.80;100.00
4586;BME280;2305;50.118;8.952;2023-05-03T05:36:12;101652.69;;;7.91;100.00
4586;BME280;2305;50.118;8.952;2023-05-03T05:38:43;101658.72;;;7.93;100.00
4586;BME280;2305;50.118;8.952;2023-05-03T05:41:13;101656.47;;;8.02;100.00
4586;BME280;2305;50.118;8.952;2023-05-03T05:43:42;101649.16;;;8.09;100.00
4586;BME280;2305;50.118;8.952;2023-05-03T05:46:12;101652.41;;;8.14;100.00
4586;BME280;2305;50.118;8.952;2023-05-03T05:48:40;101653.81;;;8.21;100.00
4586;BME280;2305;50.118;8.952;2023-05-03T05:51:10;101643.69;;;8.30;100.00
4586;BME280;2305;50.118;8.952;2023-05-03T05:53:39;101653.03;;;8.36;100.00
4586;BME280;2305;50.118;8.952;2023-05-03T05:56:12;101645.63;;;8.44;100.00
4586;BME280;2305;50.118;8.952;2023-05-03T05:58:40;101643.75;;;8.46;100.00
4586;BME280;2305;50.118;8.952;2023-05-03T06:01:08;101647.00;;;8.51;100.00
4586;BME280;2305;50.118;8.952;2023-05-03T06:03:39;101639.88;;;8.53;100.00
4586;BME280;2305;50.118;8.952;2023-05-03T06:06:08;101647.44;;;8.59;100.00
4586;BME280;2305;50.118;8.952;2023-05-03T06:08:36;101647.28;;;8.62;100.00
4586;BME280;2305;50.118;8.952;2023-05-03T06:11:04;101637.19;;;8.70;100.00
4586;BME280;2305;50.118;8.952;2023-05-03T06:13:35;101640.97;;;8.81;100.00
4586;BME280;2305;50.118;8.952;2023-05-03T06:16:06;101642.09;;;8.93;100.00
4586;BME280;2305;50.118;8.952;2023-05-03T06:18:34;101636.16;;;9.04;100.00
4586;BME280;2305;50.118;8.952;2023-05-03T06:21:03;101637.44;;;9.13;100.00
4586;BME280;2305;50.118;8.952;2023-05-03T06:23:31;101633.63;;;9.18;100.00
4586;BME280;2305;50.118;8.952;2023-05-03T06:26:00;101636.69;;;9.26;100.00
4586;BME280;2305;50.118;8.952;2023-05-03T06:28:28;101631.00;;;9.34;100.00
4586;BME280;2305;50.118;8.952;2023-05-03T06:30:58;101631.63;;;9.39;100.00
4586;BME280;2305;50.118;8.952;2023-05-03T06:33:30;101625.91;;;9.46;100.00
4586;BME280;2305;50.118;8.952;2023-05-03T06:35:58;101622.84;;;9.54;100.00
4586;BME280;2305;50.118;8.952;2023-05-03T06:38:27;101624.28;;;9.59;100.00
4586;BME280;2305;50.118;8.952;2023-05-03T06:40:55;101623.59;;;9.71;100.00
4586;BME280;2305;50.118;8.952;2023-05-03T06:43:24;101618.47;;;9.84;100.00
4586;BME280;2305;50.118;8.952;2023-05-03T06:45:55;101625.25;;;9.88;100.00
4586;BME280;2305;50.118;8.952;2023-05-03T06:48:24;101626.75;;;9.92;100.00
4586;BME280;2305;50.118;8.952;2023-05-03T06:50:55;101627.28;;;9.98;100.00
4586;BME280;2305;50.118;8.952;2023-05-03T06:53:23;101636.34;;;10.08;100.00
4586;BME280;2305;50.118;8.952;2023-05-03T06:55:52;101635.25;;;10.12;100.00
4586;BME280;2305;50.118;8.952;2023-05-03T06:58:25;101629.69;;;10.17;100.00
4586;BME280;2305;50.118;8.952;2023-05-03T07:00:53;101630.91;;;10.25;100.00
4586;BME280;2305;50.118;8.952;2023-05-03T07:03:22;101632.25;;;10.32;100.00
4586;BME280;2305;50.118;8.952;2023-05-03T07:05:51;101628.22;;;10.41;100.00
4586;BME280;2305;50.118;8.952;2023-05-03T07:08:19;101620.91;;;10.46;100.00
4586;BME280;2305;50.118;8.952;2023-05-03T07:10:48;101610.00;;;10.52;100.00
4586;BME280;2305;50.118;8.952;2023-05-03T07:13:16;101619.69;;;10.65;100.00
4586;BME280;2305;50.118;8.952;2023-05-03T07:15:44;101615.72;;;10.72;100.00
4586;BME280;2305;50.118;8.952;2023-05-03T07:18:12;101618.09;;;10.77;100.00
4586;BME280;2305;50.118;8.952;2023-05-03T07:20:40;101620.06;;;10.87;100.00
4586;BME280;2305;50.118;8.952;2023-05-03T07:23:09;101614.41;;;10.93;100.00
4586;BME280;2305;50.118;8.952;2023-05-03T07:25:38;101609.69;;;10.98;100.00
4586;BME280;2305;50.118;8.952;2023-05-03T07:28:06;101604.00;;;11.04;100.00
4586;BME280;2305;50.118;8.952;2023-05-03T07:30:34;101602.41;;;11.16;100.00
4586;BME280;2305;50.118;8.952;2023-05-03T07:33:03;101599.38;;;11.22;100.00
4586;BME280;2305;50.118;8.952;2023-05-03T07:35:32;101605.94;;;11.29;100.00
4586;BME280;2305;50.118;8.952;2023-05-03T07:38:00;101602.91;;;11.35;100.00
4586;BME280;2305;50.118;8.952;2023-05-03T07:40:29;101596.41;;;11.40;100.00
4586;BME280;2305;50.118;8.952;2023-05-03T07:42:59;101600.53;;;11.44;100.00
4586;BME280;2305;50.118;8.952;2023-05-03T07:45:27;101601.53;;;11.56;100.00
4586;BME280;2305;50.118;8.952;2023-05-03T07:47:55;101602.22;;;11.59;100.00
4586;BME280;2305;50.118;8.952;2023-05-03T07:50:24;101603.50;;;11.66;100.00
4586;BME280;2305;50.118;8.952;2023-05-03T07:52:52;101603.00;;;11.74;100.00
4586;BME280;2305;50.118;8.952;2023-05-03T07:55:22;101603.34;;;11.82;100.00
4586;BME280;2305;50.118;8.952;2023-05-03T07:57:52;101603.78;;;11.88;100.00
4586;BME280;2305;50.118;8.952;2023-05-03T08:00:25;101607.69;;;11.95;100.00
4586;BME280;2305;50.118;8.952;2023-05-03T08:02:53;101604.47;;;12.04;100.00
4586;BME280;2305;50.118;8.952;2023-05-03T08:05:22;101601.28;;;12.12;100.00
4586;BME280;2305;50.118;8.952;2023-05-03T08:07:50;101598.13;;;12.19;100.00
4586;BME280;2305;50.118;8.952;2023-05-03T08:10:19;101598.56;;;12.26;100.00
4586;BME280;2305;50.118;8.952;2023-05-03T08:12:47;101599.72;;;12.34;100.00
4586;BME280;2305;50.118;8.952;2023-05-03T08:15:17;101585.00;;;12.43;100.00
4586;BME280;2305;50.118;8.952;2023-05-03T08:17:48;101595.16;;;12.49;100.00
4586;BME280;2305;50.118;8.952;2023-05-03T08:20:16;101588.63;;;12.54;100.00
4586;BME280;2305;50.118;8.952;2023-05-03T08:22:45;101579.09;;;12.64;100.00
4586;BME280;2305;50.118;8.952;2023-05-03T08:25:13;101583.44;;;12.65;100.00
4586;BME280;2305;50.118;8.952;2023-05-03T08:27:42;101586.59;;;12.70;100.00
4586;BME280;2305;50.118;8.952;2023-05-03T08:30:11;101582.47;;;12.79;100.00
4586;BME280;2305;50.118;8.952;2023-05-03T08:32:40;101586.34;;;12.86;100.00
4586;BME280;2305;50.118;8.952;2023-05-03T08:35:09;101580.31;;;12.96;100.00
4586;BME280;2305;50.118;8.952;2023-05-03T08:37:40;101585.94;;;13.04;100.00
4586;BME280;2305;50.118;8.952;2023-05-03T08:40:09;101586.88;;;13.16;100.00
4586;BME280;2305;50.118;8.952;2023-05-03T08:42:41;101581.75;;;13.25;100.00
4586;BME280;2305;50.118;8.952;2023-05-03T08:45:11;101574.72;;;13.37;100.00
4586;BME280;2305;50.118;8.952;2023-05-03T08:47:44;101570.66;;;13.44;100.00
4586;BME280;2305;50.118;8.952;2023-05-03T08:50:13;101565.75;;;13.50;100.00
4586;BME280;2305;50.118;8.952;2023-05-03T08:52:42;101580.22;;;13.57;100.00
4586;BME280;2305;50.118;8.952;2023-05-03T08:55:11;101581.69;;;13.61;100.00
4586;BME280;2305;50.118;8.952;2023-05-03T08:57:39;101580.16;;;13.69;100.00
4586;BME280;2305;50.118;8.952;2023-05-03T09:00:08;101587.09;;;13.83;100.00
4586;BME280;2305;50.118;8.952;2023-05-03T09:02:39;101574.22;;;13.89;100.00
4586;BME280;2305;50.118;8.952;2023-05-03T09:05:33;101571.00;;;13.97;100.00
4586;BME280;2305;50.118;8.952;2023-05-03T09:08:05;101577.16;;;14.08;100.00
4586;BME280;2305;50.118;8.952;2023-05-03T09:10:37;101573.56;;;14.09;100.00
4586;BME280;2305;50.118;8.952;2023-05-03T09:13:05;101572.88;;;14.18;100.00
4586;BME280;2305;50.118;8.952;2023-05-03T09:15:34;101578.31;;;14.28;100.00
4586;BME280;2305;50.118;8.952;2023-05-03T09:18:07;101575.44;;;14.42;100.00
4586;BME280;2305;50.118;8.952;2023-05-03T09:20:38;101575.59;;;14.51;100.00
4586;BME280;2305;50.118;8.952;2023-05-03T09:23:08;101582.00;;;14.60;100.00
4586;BME280;2305;50.118;8.952;2023-05-03T09:25:43;101579.31;;;14.71;100.00
4586;BME280;2305;50.118;8.952;2023-05-03T09:28:11;101570.63;;;14.80;100.00
4586;BME280;2305;50.118;8.952;2023-05-03T09:30:40;101567.88;;;14.92;100.00
4586;BME280;2305;50.118;8.952;2023-05-03T09:33:08;101559.75;;;14.94;100.00
4586;BME280;2305;50.118;8.952;2023-05-03T09:35:54;101559.75;;;15.05;100.00
4586;BME280;2305;50.118;8.952;2023-05-03T09:38:27;101562.16;;;15.19;99.80
4586;BME280;2305;50.118;8.952;2023-05-03T09:40:56;101552.50;;;15.18;100.00
4586;BME280;2305;50.118;8.952;2023-05-03T09:43:24;101552.72;;;15.15;100.00
4586;BME280;2305;50.118;8.952;2023-05-03T09:46:06;101554.06;;;15.20;98.47
4586;BME280;2305;50.118;8.952;2023-05-03T09:48:35;101552.94;;;15.23;96.40
4586;BME280;2305;50.118;8.952;2023-05-03T09:51:06;101543.50;;;15.30;96.72
4586;BME280;2305;50.118;8.952;2023-05-03T09:53:36;101543.91;;;15.36;95.38
4586;BME280;2305;50.118;8.952;2023-05-03T09:56:07;101536.97;;;15.45;95.62
4586;BME280;2305;50.118;8.952;2023-05-03T09:58:39;101534.41;;;15.54;94.33
4586;BME280;2305;50.118;8.952;2023-05-03T10:01:08;101530.53;;;15.58;92.18
4586;BME280;2305;50.118;8.952;2023-05-03T10:03:39;101540.06;;;15.61;93.96
4586;BME280;2305;50.118;8.952;2023-05-03T10:06:21;101532.69;;;15.64;93.39
4586;BME280;2305;50.118;8.952;2023-05-03T10:08:52;101528.88;;;15.78;94.42
4586;BME280;2305;50.118;8.952;2023-05-03T10:11:23;101524.50;;;15.97;99.13
4586;BME280;2305;50.118;8.952;2023-05-03T10:13:53;101519.06;;;15.99;95.28
4586;BME280;2305;50.118;8.952;2023-05-03T10:16:26;101526.72;;;16.13;94.61
4586;BME280;2305;50.118;8.952;2023-05-03T10:19:05;101519.19;;;16.18;86.25
4586;BME280;2305;50.118;8.952;2023-05-03T10:21:53;101510.81;;;16.02;86.00
4586;BME280;2305;50.118;8.952;2023-05-03T10:24:23;101511.63;;;16.13;83.06
4586;BME280;2305;50.118;8.952;2023-05-03T10:26:51;101503.19;;;16.08;85.08
4586;BME280;2305;50.118;8.952;2023-05-03T10:29:43;101513.59;;;16.21;86.92
4586;BME280;2305;50.118;8.952;2023-05-03T10:32:34;101507.34;;;16.31;84.80
4586;BME280;2305;50.118;8.952;2023-05-03T10:35:09;101508.78;;;16.35;80.63
4586;BME280;2305;50.118;8.952;2023-05-03T10:37:43;101507.56;;;16.39;84.28
4586;BME280;2305;50.118;8.952;2023-05-03T10:40:14;101502.56;;;16.46;82.74
4586;BME280;2305;50.118;8.952;2023-05-03T10:42:49;101498.97;;;16.56;83.70
4586;BME280;2305;50.118;8.952;2023-05-03T10:45:23;101507.69;;;16.68;86.39
4586;BME280;2305;50.118;8.952;2023-05-03T10:48:14;101505.06;;;16.77;92.20
4586;BME280;2305;50.118;8.952;2023-05-03T10:50:46;101499.91;;;16.85;88.09
4586;BME280;2305;50.118;8.952;2023-05-03T10:53:41;101492.03;;;16.84;87.86
4586;BME280;2305;50.118;8.952;2023-05-03T10:56:12;101488.97;;;16.88;85.49
4586;BME280;2305;50.118;8.952;2023-05-03T10:58:42;101487.59;;;17.03;83.91
4586;BME280;2305;50.118;8.952;2023-05-03T11:01:12;101478.06;;;17.10;78.95
4586;BME280;2305;50.118;8.952;2023-05-03T11:03:48;101478.38;;;17.17;83.41
4586;BME280;2305;50.118;8.952;2023-05-03T11:06:31;101477.66;;;17.24;83.27
4586;BME280;2305;50.118;8.952;2023-05-03T11:09:03;101479.47;;;17.33;80.18
4586;BME280;2305;50.118;8.952;2023-05-03T11:11:33;101480.50;;;17.42;84.98
4586;BME280;2305;50.118;8.952;2023-05-03T11:14:02;101479.66;;;17.51;84.98
4586;BME280;2305;50.118;8.952;2023-05-03T11:16:30;101476.44;;;17.57;82.20
4586;BME280;2305;50.118;8.952;2023-05-03T11:19:00;101468.28;;;17.68;72.77
4586;BME280;2305;50.118;8.952;2023-05-03T11:21:28;101469.56;;;17.64;76.76
4586;BME280;2305;50.118;8.952;2023-05-03T11:23:58;101472.63;;;17.69;78.40
4586;BME280;2305;50.118;8.952;2023-05-03T11:26:27;101468.97;;;17.79;79.58
4586;BME280;2305;50.118;8.952;2023-05-03T11:28:55;101463.34;;;17.82;74.11
4586;BME280;2305;50.118;8.952;2023-05-03T11:31:23;101465.31;;;17.90;75.38
4586;BME280;2305;50.118;8.952;2023-05-03T11:33:52;101461.91;;;17.97;80.17
4586;BME280;2305;50.118;8.952;2023-05-03T11:36:20;101452.78;;;18.00;72.80
4586;BME280;2305;50.118;8.952;2023-05-03T11:38:48;101458.66;;;18.03;74.11
4586;BME280;2305;50.118;8.952;2023-05-03T11:41:16;101445.88;;;18.07;76.99
4586;BME280;2305;50.118;8.952;2023-05-03T11:43:47;101448.66;;;18.15;73.59
4586;BME280;2305;50.118;8.952;2023-05-03T11:46:34;101441.34;;;18.17;67.75
4586;BME280;2305;50.118;8.952;2023-05-03T11:49:02;101434.91;;;18.19;65.57
4586;BME280;2305;50.118;8.952;2023-05-03T11:51:30;101447.78;;;18.24;64.62
4586;BME280;2305;50.118;8.952;2023-05-03T11:53:59;101433.88;;;18.30;63.16
4586;BME280;2305;50.118;8.952;2023-05-03T11:56:49;101440.16;;;18.38;67.51
4586;BME280;2305;50.118;8.952;2023-05-03T11:59:32;101433.09;;;18.47;64.50
4586;BME280;2305;50.118;8.952;2023-05-03T12:02:03;101439.06;;;18.58;66.20
4586;BME280;2305;50.118;8.952;2023-05-03T12:04:32;101440.25;;;18.73;66.05
4586;BME280;2305;50.118;8.952;2023-05-03T12:07:00;101434.31;;;18.79;59.81
4586;BME280;2305;50.118;8.952;2023-05-03T12:09:31;101432.50;;;18.80;65.20
4586;BME280;2305;50.118;8.952;2023-05-03T12:12:03;101426.78;;;18.92;67.18
4586;BME280;2305;50.118;8.952;2023-05-03T12:14:55;101418.63;;;19.11;66.66
4586;BME280;2305;50.118;8.952;2023-05-03T12:17:35;101417.47;;;19.31;68.14
4586;BME280;2305;50.118;8.952;2023-05-03T12:20:15;101417.47;;;19.48;68.67
4586;BME280;2305;50.118;8.952;2023-05-03T12:23:06;101408.56;;;19.65;67.71
4586;BME280;2305;50.118;8.952;2023-05-03T12:25:36;101411.69;;;19.78;65.70
4586;BME280;2305;50.118;8.952;2023-05-03T12:28:11;101399.22;;;19.95;59.83
4586;BME280;2305;50.118;8.952;2023-05-03T12:30:50;101393.09;;;20.02;59.89
4586;BME280;2305;50.118;8.952;2023-05-03T12:33:23;101397.34;;;20.13;58.56
4586;BME280;2305;50.118;8.952;2023-05-03T12:35:54;101399.06;;;20.22;60.22
4586;BME280;2305;50.118;8.952;2023-05-03T12:38:25;101391.25;;;20.28;56.95
4586;BME280;2305;50.118;8.952;2023-05-03T12:40:56;101385.41;;;20.41;58.07
4586;BME280;2305;50.118;8.952;2023-05-03T12:43:27;101395.00;;;20.51;56.77
4586;BME280;2305;50.118;8.952;2023-05-03T12:45:57;101384.31;;;20.67;57.53
4586;BME280;2305;50.118;8.952;2023-05-03T12:48:48;101386.88;;;20.85;56.26
4586;BME280;2305;50.118;8.952;2023-05-03T12:51:20;101379.88;;;20.92;52.86
4586;BME280;2305;50.118;8.952;2023-05-03T12:53:51;101371.03;;;20.99;53.82
4586;BME280;2305;50.118;8.952;2023-05-03T12:56:21;101369.50;;;21.05;50.32
4586;BME280;2305;50.118;8.952;2023-05-03T12:58:51;101371.69;;;21.17;51.81
4586;BME280;2305;50.118;8.952;2023-05-03T13:01:40;101352.41;;;21.30;52.75
4586;BME280;2305;50.118;8.952;2023-05-03T13:04:11;101360.94;;;21.41;53.59
4586;BME280;2305;50.118;8.952;2023-05-03T13:06:42;101363.25;;;21.60;55.32
4586;BME280;2305;50.118;8.952;2023-05-03T13:09:12;101360.59;;;21.68;47.97
4586;BME280;2305;50.118;8.952;2023-05-03T13:11:49;101344.16;;;21.71;48.28
4586;BME280;2305;50.118;8.952;2023-05-03T13:14:18;101347.13;;;21.84;50.36
4586;BME280;2305;50.118;8.952;2023-05-03T13:16:48;101338.22;;;21.92;49.03
4586;BME280;2305;50.118;8.952;2023-05-03T13:19:17;101336.84;;;22.04;49.60
4586;BME280;2305;50.118;8.952;2023-05-03T13:21:46;101330.09;;;22.08;49.88
4586;BME280;2305;50.118;8.952;2023-05-03T13:24:14;101328.66;;;22.28;48.61
4586;BME280;2305;50.118;8.952;2023-05-03T13:26:42;101316.34;;;22.49;49.10
4586;BME280;2305;50.118;8.952;2023-05-03T13:29:10;101315.19;;;22.66;49.12
4586;BME280;2305;50.118;8.952;2023-05-03T13:31:40;101303.50;;;22.82;46.92
4586;BME280;2305;50.118;8.952;2023-05-03T13:34:09;101299.09;;;22.89;46.66